Aeroporto :
LOGIN :

Iscrizione | Disclaimer

   EN    FR    IT 

 










Sommario :    VFR   VFR Marginale   IFR   IFR Intensivo   IFR Molto Intensivo
Visibilità : 
Base nubi : 
>= 8 km
>= 3000ft
5 / 8 km
1000 / 3000 ft
1500m / 5 km
500 / 1000 ft
800 / 1500m
200 / 500 ft
< 800m
< 200 ft
Simboli :   Temporali  Nebbia  Neve Forte  Precipitazioni Forti  Vento > 20 kt
SIGMETs :   Varie  Temporali  Ghiacco  Turbolenza  Onda orograficha  Ceneri Vulcaniche






- Altitudine del aeroporto : 45 ft


LIQW - Luni - Sarzana Genoa

ULTIMO METAR :
  • 281455Z 18013G30KT 120V240 8000 FEW015CB BKN020 12/07 Q1008 RMK OVC VIS MIN 8000 WIND THR18 23017G33KT WHT

METARs OBSOLETI :
  • 281355Z 15007KT 8000 SCT020 BKN025 12/08 Q1009 RMK OVC VIS MIN 8000 WIND THR18 21010KT BLU
  • 281255Z 10007KT 8000 SCT015 BKN020 12/10 Q1009 RMK OVC VIS MIN 8000 WIND THR18 15007KT WHT

TAF TAF LIQW
Valido dal 28 a 15 ore il 29 a 00 ore UTC


281400Z 2815/2824 13010KT 7000 SCT015 BKN020
TEMPO 2812/2821 15015G25KT 3000 RA BR



MetMap, La meteo Aeronautica in un colpo d'occhio ! - Copyright ORBIFLY Dicembre 2007 - Disclaimer

ORBIFLY MET'MAP TEAM :

Programmazione e sviluppo : Alexandra Zaïnal
Concezione : Baudouin d'Aumeries
Aiuto per la programmazione : Marc-Olivier Méhu
Supporto tecnico e logistico : Manuel Goepfert
Aiuto per la traduzione : Arnaldo La Scala

Contatto : metmap@orbifly.com




FONTI E CREDITI :

   NOAA